createdAt,value
2019-04-26T00:00:53.140Z,47.49
2019-04-26T00:03:28.015Z,47.87
2019-04-26T00:05:57.485Z,47.12
2019-04-26T00:08:26.271Z,47.44
2019-04-26T00:11:02.451Z,47.52
2019-04-26T00:13:48.129Z,48.11
2019-04-26T00:16:38.365Z,48.31
2019-04-26T00:19:07.462Z,48.10
2019-04-26T00:21:36.628Z,48.35
2019-04-26T00:24:05.793Z,48.67
2019-04-26T00:26:34.945Z,48.32
2019-04-26T00:29:03.943Z,48.12
2019-04-26T00:31:44.601Z,48.06
2019-04-26T00:34:22.830Z,48.11
2019-04-26T00:36:51.732Z,48.00
2019-04-26T00:39:20.773Z,48.44
2019-04-26T00:41:50.200Z,47.78
2019-04-26T00:44:19.444Z,48.22
2019-04-26T00:46:50.873Z,48.12
2019-04-26T00:49:21.259Z,48.64
2019-04-26T00:51:51.017Z,48.25
2019-04-26T00:54:22.239Z,49.07
2019-04-26T00:57:02.034Z,49.64
2019-04-26T00:59:32.198Z,49.63
2019-04-26T01:02:08.465Z,49.48
2019-04-26T01:04:37.346Z,48.98
2019-04-26T01:07:08.652Z,48.85
2019-04-26T01:09:37.621Z,48.59
2019-04-26T01:12:06.613Z,48.98
2019-04-26T01:14:35.577Z,49.50
2019-04-26T01:17:04.712Z,49.63
2019-04-26T01:20:00.090Z,48.84
2019-04-26T01:22:32.993Z,49.00
2019-04-26T01:25:06.107Z,49.74
2019-04-26T01:27:37.311Z,49.09
2019-04-26T01:30:09.058Z,50.43
2019-04-26T01:32:40.909Z,50.28
2019-04-26T01:35:09.967Z,50.38
2019-04-26T01:38:03.869Z,50.83
2019-04-26T01:40:34.476Z,50.79
2019-04-26T01:43:26.419Z,48.84
2019-04-26T01:46:10.581Z,50.96
2019-04-26T01:48:53.541Z,50.94
2019-04-26T01:51:29.035Z,50.90
2019-04-26T01:53:57.988Z,52.04
2019-04-26T01:56:31.428Z,52.15
2019-04-26T01:59:00.467Z,52.54
2019-04-26T02:01:43.339Z,52.57
2019-04-26T02:04:12.656Z,52.30
2019-04-26T02:06:41.796Z,52.13
2019-04-26T02:09:11.517Z,53.38
2019-04-26T02:11:40.821Z,55.09
2019-04-26T02:14:10.239Z,53.77
2019-04-26T02:16:39.780Z,54.88
2019-04-26T02:19:08.764Z,55.07
2019-04-26T02:21:44.149Z,54.79
2019-04-26T02:24:18.180Z,53.29
2019-04-26T02:26:48.195Z,52.84
2019-04-26T02:29:26.649Z,53.84
2019-04-26T02:31:59.795Z,55.89
2019-04-26T02:34:31.304Z,56.70
2019-04-26T02:37:03.592Z,56.91
2019-04-26T02:39:39.340Z,56.19
2019-04-26T02:42:19.082Z,56.45
2019-04-26T02:45:10.385Z,58.14
2019-04-26T02:47:57.742Z,58.22
2019-04-26T02:50:46.976Z,58.47
2019-04-26T02:53:33.560Z,58.26
2019-04-26T02:56:37.731Z,59.15
2019-04-26T02:59:34.570Z,59.71
2019-04-26T03:02:07.245Z,59.81
2019-04-26T03:04:40.882Z,59.42
2019-04-26T03:07:15.427Z,59.33
2019-04-26T03:09:47.503Z,60.70
2019-04-26T03:12:18.530Z,60.84
2019-04-26T03:15:13.907Z,60.55
2019-04-26T03:17:49.415Z,61.73
2019-04-26T03:20:21.973Z,61.79
2019-04-26T03:23:08.046Z,62.24
2019-04-26T03:26:12.902Z,61.88
2019-04-26T03:29:02.189Z,62.62
2019-04-26T03:32:02.342Z,62.36
2019-04-26T03:34:50.782Z,62.60
2019-04-26T03:38:11.283Z,62.87
2019-04-26T03:41:24.015Z,63.00
2019-04-26T03:44:12.147Z,63.55
2019-04-26T03:46:58.852Z,64.36
2019-04-26T03:50:09.773Z,63.69
2019-04-26T03:53:30.960Z,62.99
2019-04-26T03:56:36.486Z,63.23
2019-04-26T03:59:42.815Z,63.07
2019-04-26T04:02:21.914Z,63.07
2019-04-26T04:05:03.297Z,63.67
2019-04-26T04:07:39.131Z,63.22
2019-04-26T04:10:20.124Z,63.04
2019-04-26T04:14:07.073Z,62.67
2019-04-26T04:17:11.761Z,62.67
2019-04-26T04:20:51.721Z,63.18
2019-04-26T04:24:04.659Z,63.41
2019-04-26T04:27:10.460Z,63.41
2019-04-26T04:29:54.480Z,63.28
2019-04-26T04:32:30.149Z,62.84
2019-04-26T04:35:06.249Z,64.06
2019-04-26T04:38:09.667Z,64.31
2019-04-26T04:41:31.677Z,64.31
2019-04-26T04:45:12.945Z,64.66
2019-04-26T04:48:01.260Z,64.62
2019-04-26T04:50:42.552Z,65.44
2019-04-26T04:53:41.178Z,65.44
2019-04-26T04:56:35.426Z,63.75
2019-04-26T04:59:36.910Z,63.75
2019-04-26T05:02:20.811Z,64.88
2019-04-26T05:05:24.513Z,64.57
2019-04-26T05:34:02.482Z,66.35
2019-04-26T05:37:27.978Z,66.15
2019-04-26T05:40:13.506Z,66.59
2019-04-26T05:43:26.856Z,66.64
2019-04-26T05:46:34.459Z,67.86
2019-04-26T05:49:50.404Z,69.64
2019-04-26T05:53:08.276Z,69.78
2019-04-26T05:56:31.244Z,72.20
2019-04-26T05:59:17.687Z,73.41
2019-04-26T06:02:31.120Z,71.98
2019-04-26T06:05:31.301Z,71.70
2019-04-26T06:08:53.820Z,68.52
2019-04-26T06:11:32.776Z,68.52
2019-04-26T06:14:34.892Z,65.11
2019-04-26T06:17:36.732Z,61.71
2019-04-26T06:20:23.933Z,64.44
2019-04-26T06:23:22.728Z,62.81
2019-04-26T06:26:08.165Z,63.92
2019-04-26T06:28:57.100Z,65.08
2019-04-26T06:31:30.809Z,65.45
2019-04-26T06:34:11.586Z,67.44
2019-04-26T06:37:08.499Z,56.30
2019-04-26T06:40:06.018Z,43.63
2019-04-26T06:43:15.385Z,41.28
2019-04-26T06:46:47.530Z,38.60
2019-04-26T06:49:41.680Z,37.64
2019-04-26T06:52:15.102Z,36.44
2019-04-26T06:55:10.010Z,35.32
2019-04-26T06:58:14.490Z,39.39
2019-04-26T07:01:11.798Z,36.56
2019-04-26T07:04:21.295Z,37.14
2019-04-26T07:07:02.563Z,34.14
2019-04-26T07:09:38.779Z,38.18
2019-04-26T07:12:42.649Z,39.59
2019-04-26T07:16:16.471Z,35.93
2019-04-26T07:19:16.355Z,36.10
2019-04-26T07:22:35.133Z,37.24
2019-04-26T07:25:40.292Z,40.83
2019-04-26T07:28:30.896Z,38.86
2019-04-26T07:31:13.490Z,36.48
2019-04-26T07:34:09.480Z,40.70
2019-04-26T07:37:15.521Z,37.18
2019-04-26T07:40:43.093Z,38.01
2019-04-26T07:43:38.782Z,40.80
2019-04-26T07:46:48.010Z,41.99
2019-04-26T07:50:04.038Z,45.76
2019-04-26T07:52:52.950Z,47.17
2019-04-26T07:55:50.481Z,48.64
2019-04-26T07:59:10.642Z,50.34
2019-04-26T08:02:09.004Z,51.29
2019-04-26T08:04:43.498Z,54.23
2019-04-26T08:07:21.034Z,54.13
2019-04-26T08:10:10.322Z,51.75
2019-04-26T08:12:42.532Z,53.33
2019-04-26T08:15:39.091Z,52.57
2019-04-26T08:18:15.273Z,53.45
2019-04-26T08:20:50.611Z,51.69
2019-04-26T08:23:41.946Z,52.78
2019-04-26T08:26:13.802Z,50.63
2019-04-26T08:28:45.346Z,54.17
2019-04-26T08:31:21.503Z,52.53
2019-04-26T08:33:57.083Z,52.81
2019-04-26T08:36:31.683Z,52.07
2019-04-26T08:39:01.875Z,54.18
2019-04-26T08:41:31.512Z,53.71
2019-04-26T08:44:24.260Z,53.53
2019-04-26T08:47:20.980Z,53.05
2019-04-26T08:50:09.676Z,53.44
2019-04-26T08:52:39.719Z,52.10
2019-04-26T08:55:10.579Z,51.03
2019-04-26T08:57:43.495Z,51.68
2019-04-26T09:00:35.462Z,51.59
2019-04-26T09:03:22.886Z,52.44
2019-04-26T09:06:19.133Z,53.01
2019-04-26T09:08:51.536Z,53.37
2019-04-26T09:11:26.384Z,54.87
2019-04-26T09:13:56.270Z,53.08
2019-04-26T09:16:26.015Z,52.59
2019-04-26T09:18:59.523Z,53.13
2019-04-26T09:21:37.018Z,53.99
2019-04-26T09:24:25.115Z,53.72
2019-04-26T09:27:12.787Z,54.08
2019-04-26T09:30:05.084Z,52.18
2019-04-26T09:32:42.311Z,54.80
2019-04-26T09:35:15.239Z,56.12
2019-04-26T09:37:43.443Z,56.62
2019-04-26T09:40:21.155Z,56.30
2019-04-26T09:43:10.596Z,54.13
2019-04-26T09:46:03.069Z,55.71
2019-04-26T09:48:40.536Z,54.80
2019-04-26T09:51:10.894Z,56.05
2019-04-26T09:53:43.269Z,54.45
2019-04-26T09:56:11.839Z,56.37
2019-04-26T09:58:41.089Z,55.14
2019-04-26T10:01:10.576Z,56.30
2019-04-26T10:03:39.864Z,56.50
2019-04-26T10:06:09.439Z,56.77
2019-04-26T10:08:38.615Z,56.05
2019-04-26T10:11:10.963Z,55.16
2019-04-26T10:13:58.645Z,54.19
2019-04-26T10:16:33.626Z,55.02
2019-04-26T10:19:16.339Z,54.25
2019-04-26T10:21:45.660Z,56.32
2019-04-26T10:24:15.254Z,57.98
2019-04-26T10:26:44.527Z,56.77
2019-04-26T10:29:14.743Z,56.86
2019-04-26T10:31:47.558Z,56.17
2019-04-26T10:34:16.733Z,56.73
2019-04-26T10:36:45.937Z,55.85
2019-04-26T10:39:17.017Z,55.89
2019-04-26T10:41:46.262Z,55.31
2019-04-26T10:44:15.836Z,55.34
2019-04-26T10:46:55.065Z,53.14
2019-04-26T10:49:42.053Z,52.80
2019-04-26T10:52:18.830Z,53.89
2019-04-26T10:54:52.014Z,57.01
2019-04-26T10:57:29.941Z,56.87
2019-04-26T11:00:02.679Z,56.70
2019-04-26T11:02:32.493Z,58.08
2019-04-26T11:05:01.713Z,57.71
2019-04-26T11:07:30.945Z,57.99
2019-04-26T11:10:03.006Z,58.46
2019-04-26T11:12:34.047Z,58.56
2019-04-26T11:15:06.190Z,57.20
2019-04-26T11:17:35.249Z,57.00
2019-04-26T11:20:06.185Z,55.97
2019-04-26T11:22:37.579Z,56.18
2019-04-26T11:25:08.555Z,56.23
2019-04-26T11:27:40.221Z,56.07
2019-04-26T11:30:12.079Z,55.43
2019-04-26T11:32:41.098Z,54.45
2019-04-26T11:35:11.805Z,54.46
2019-04-26T11:37:41.657Z,52.46
2019-04-26T11:40:14.534Z,51.94
2019-04-26T11:42:45.629Z,52.73
2019-04-26T11:45:15.892Z,53.89
2019-04-26T11:47:55.788Z,54.61
2019-04-26T11:50:17.844Z,56.06
2019-04-26T11:52:48.056Z,55.65
2019-04-26T11:55:17.429Z,55.06
2019-04-26T11:57:47.504Z,53.93
2019-04-26T12:00:32.365Z,54.70
2019-04-26T12:03:02.987Z,55.50
2019-04-26T12:05:39.568Z,53.02
2019-04-26T12:08:14.922Z,50.23
2019-04-26T12:10:45.860Z,52.48
2019-04-26T12:13:15.570Z,51.64
2019-04-26T12:15:45.430Z,52.80
2019-04-26T12:18:15.026Z,55.22
2019-04-26T12:20:44.430Z,53.78
2019-04-26T12:23:20.557Z,53.77
2019-04-26T12:25:49.310Z,55.72
2019-04-26T12:28:19.836Z,54.67
2019-04-26T12:30:49.439Z,53.69
2019-04-26T12:33:18.689Z,53.97
2019-04-26T12:35:48.248Z,54.17
2019-04-26T12:38:17.827Z,53.08
2019-04-26T12:40:47.885Z,53.16
2019-04-26T12:43:20.035Z,53.91
2019-04-26T12:46:16.200Z,53.75
2019-04-26T12:48:46.046Z,54.84
2019-04-26T12:51:16.624Z,54.17
2019-04-26T12:53:45.751Z,54.36
2019-04-26T12:56:15.548Z,54.87
2019-04-26T12:58:45.629Z,55.46
2019-04-26T13:02:05.084Z,56.99
2019-04-26T13:05:20.635Z,57.10
2019-04-26T13:07:52.508Z,57.77
2019-04-26T13:17:35.798Z,58.46
2019-04-26T13:29:23.000Z,59.29
2019-04-26T13:33:04.080Z,58.51
2019-04-26T13:35:33.280Z,58.95
2019-04-26T13:38:05.154Z,59.20
2019-04-26T13:44:05.903Z,58.63
2019-04-26T13:46:49.443Z,58.87
2019-04-26T13:49:26.577Z,58.74
2019-04-26T13:51:55.514Z,59.51
2019-04-26T13:54:24.366Z,59.15
2019-04-26T13:56:53.331Z,59.06
2019-04-26T13:59:22.313Z,60.44
2019-04-26T14:01:51.246Z,60.24
2019-04-26T14:04:20.209Z,60.03
2019-04-26T14:06:49.098Z,59.52
2019-04-26T14:09:18.015Z,59.80
2019-04-26T14:11:58.120Z,60.72
2019-04-26T14:14:35.314Z,60.15
2019-04-26T14:17:04.303Z,60.69
2019-04-26T14:19:33.163Z,61.01
2019-04-26T14:22:03.235Z,59.90
2019-04-26T14:24:44.180Z,59.48
2019-04-26T14:27:19.707Z,59.04
2019-04-26T14:29:50.081Z,59.48
2019-04-26T14:32:25.217Z,58.68
2019-04-26T14:34:54.221Z,57.02
2019-04-26T14:37:23.217Z,56.74
2019-04-26T14:39:55.366Z,57.09
2019-04-26T14:42:33.596Z,57.17
2019-04-26T14:44:54.080Z,57.93
2019-04-26T14:47:26.417Z,57.57
2019-04-26T14:49:57.596Z,57.49
2019-04-26T14:52:27.486Z,58.34
2019-04-26T14:54:54.614Z,57.95
2019-04-26T14:57:31.022Z,57.01
2019-04-26T14:59:58.144Z,57.20
2019-04-26T15:02:47.155Z,57.59
2019-04-26T15:05:22.317Z,58.28
2019-04-26T15:07:53.604Z,58.80
2019-04-26T15:10:23.524Z,60.09
2019-04-26T15:12:58.595Z,59.21
2019-04-26T15:15:30.975Z,57.49
2019-04-26T15:17:59.492Z,51.73
2019-04-26T15:20:27.846Z,48.99
2019-04-26T15:22:56.751Z,52.72
2019-04-26T15:25:28.675Z,56.12
2019-04-26T15:30:43.376Z,57.92
2019-04-26T15:34:08.782Z,50.43
2019-04-26T15:40:02.718Z,44.30
2019-04-26T15:43:39.863Z,48.46
2019-04-26T15:46:17.651Z,50.24
2019-04-26T15:49:42.837Z,56.00
2019-04-26T15:52:12.129Z,57.03
2019-04-26T15:54:42.491Z,56.58
2019-04-26T15:57:12.577Z,57.10
2019-04-26T15:59:43.042Z,57.62
2019-04-26T16:02:13.456Z,57.78
2019-04-26T16:05:40.567Z,56.97
2019-04-26T16:08:13.346Z,57.57
2019-04-26T16:10:43.150Z,57.64
2019-04-26T16:13:20.693Z,58.04
2019-04-26T16:15:48.754Z,57.26
2019-04-26T16:18:17.443Z,58.62
2019-04-26T16:21:05.741Z,57.72
2019-04-26T16:23:41.424Z,58.00
2019-04-26T16:26:12.763Z,58.11
2019-04-26T16:29:05.312Z,58.33
2019-04-26T16:31:46.086Z,58.69
2019-04-26T16:34:28.103Z,57.63
2019-04-26T16:36:58.719Z,58.02
2019-04-26T16:39:32.319Z,58.20
2019-04-26T16:42:04.388Z,57.19
2019-04-26T16:44:32.991Z,57.72
2019-04-26T16:47:05.655Z,58.02
2019-04-26T16:49:41.816Z,58.77
2019-04-26T16:52:07.890Z,58.07
2019-04-26T16:54:37.411Z,58.84
2019-04-26T16:57:11.466Z,58.27
2019-04-26T16:59:47.455Z,59.09
2019-04-26T17:04:39.791Z,61.12
2019-04-26T17:07:09.157Z,60.16
2019-04-26T17:09:55.793Z,60.28
2019-04-26T17:12:10.645Z,61.29
2019-04-26T17:14:47.865Z,61.10
2019-04-26T17:17:14.025Z,61.84
2019-04-26T17:19:43.516Z,61.31
2019-04-26T17:22:42.225Z,60.47
2019-04-26T17:25:26.860Z,61.00
2019-04-26T17:27:55.891Z,61.33
2019-04-26T17:30:26.229Z,61.15
2019-04-26T17:32:55.468Z,61.15
2019-04-26T17:35:25.406Z,62.39
2019-04-26T17:38:02.045Z,62.64
2019-04-26T17:40:30.160Z,62.67
2019-04-26T17:43:00.508Z,62.83
2019-04-26T17:45:30.622Z,63.27
2019-04-26T17:48:01.338Z,63.01
2019-04-26T17:50:30.956Z,63.78
2019-04-26T17:53:00.657Z,64.37
2019-04-26T17:55:33.348Z,65.80
2019-04-26T17:58:12.118Z,67.76
2019-04-26T18:00:46.007Z,67.17
2019-04-26T18:03:11.642Z,67.17
2019-04-26T18:05:55.948Z,68.26
2019-04-26T18:08:31.296Z,68.92
2019-04-26T18:10:43.191Z,67.33
2019-04-26T18:13:16.143Z,67.75
2019-04-26T18:15:48.485Z,68.00
2019-04-26T18:18:34.258Z,68.29
2019-04-26T18:21:40.927Z,68.47
2019-04-26T18:24:13.200Z,68.92
2019-04-26T18:26:43.300Z,69.95
2019-04-26T18:29:13.190Z,69.89
2019-04-26T18:31:43.822Z,69.89
2019-04-26T18:34:13.109Z,71.04
2019-04-26T18:36:42.996Z,71.55
2019-04-26T18:39:12.751Z,72.80
2019-04-26T18:41:41.914Z,72.63
2019-04-26T18:44:11.038Z,73.86
2019-04-26T18:46:49.279Z,73.86
2019-04-26T18:49:22.595Z,73.15
2019-04-26T18:51:50.167Z,75.51
2019-04-26T18:54:24.936Z,75.51
2019-04-26T18:57:15.544Z,75.32
2019-04-26T18:59:44.817Z,75.65
2019-04-26T19:02:19.880Z,75.52
2019-04-26T19:04:49.689Z,75.81
2019-04-26T19:07:31.304Z,77.82
2019-04-26T19:10:00.683Z,77.93
2019-04-26T19:12:23.240Z,78.75
2019-04-26T19:15:19.700Z,78.41
2019-04-26T19:18:07.775Z,78.29
2019-04-26T19:20:42.098Z,78.16
2019-04-26T19:23:12.280Z,78.56
2019-04-26T19:25:41.737Z,78.00
2019-04-26T19:28:12.177Z,78.00
2019-04-26T19:30:48.921Z,78.38
2019-04-26T19:33:17.045Z,77.94
2019-04-26T19:35:47.409Z,77.85
2019-04-26T19:38:15.088Z,78.09
2019-04-26T19:40:47.868Z,78.96
2019-04-26T19:47:07.236Z,78.14
2019-04-26T19:49:54.235Z,78.30
2019-04-26T19:52:33.642Z,78.65
2019-04-26T19:55:23.838Z,79.50
2019-04-26T19:57:59.697Z,80.10
2019-04-26T20:00:29.282Z,80.05
2019-04-26T20:02:58.492Z,80.31
2019-04-26T20:05:28.020Z,80.14
2019-04-26T20:07:58.456Z,79.74
2019-04-26T20:10:28.163Z,80.58
2019-04-26T20:12:57.447Z,80.40
2019-04-26T20:15:28.632Z,81.63
2019-04-26T20:18:00.296Z,82.01
2019-04-26T20:20:34.522Z,81.51
2019-04-26T20:23:05.802Z,81.12
2019-04-26T20:25:32.076Z,81.98
2019-04-26T20:28:03.087Z,82.94
2019-04-26T20:31:05.869Z,82.69
2019-04-26T20:33:34.932Z,82.75
2019-04-26T20:36:04.806Z,82.47
2019-04-26T20:38:42.706Z,83.07
2019-04-26T20:41:05.411Z,82.82
2019-04-26T20:43:36.764Z,81.54
2019-04-26T20:46:14.569Z,82.49
2019-04-26T20:48:46.604Z,82.44
2019-04-26T20:51:18.174Z,83.32
2019-04-26T20:53:47.086Z,83.54
2019-04-26T20:56:18.705Z,82.81
2019-04-26T20:58:48.156Z,83.90
2019-04-26T21:01:17.619Z,84.00
2019-04-26T21:03:47.463Z,83.98
2019-04-26T21:06:18.655Z,84.73
2019-04-26T21:08:47.893Z,85.46
2019-04-26T21:11:17.657Z,85.09
2019-04-26T21:13:47.407Z,85.32
2019-04-26T21:16:16.711Z,86.08
2019-04-26T21:18:45.976Z,86.49
2019-04-26T21:21:16.626Z,86.75
2019-04-26T21:33:21.440Z,85.18
2019-04-26T21:36:22.947Z,85.36
2019-04-26T21:39:13.882Z,84.76
2019-04-26T21:41:53.765Z,85.10
2019-04-26T21:44:22.736Z,85.08
2019-04-26T21:46:56.196Z,85.62
2019-04-26T21:49:24.317Z,85.88
2019-04-26T21:51:54.310Z,86.14
2019-04-26T21:54:25.152Z,86.09
2019-04-26T21:57:13.534Z,86.59
2019-04-26T21:59:44.170Z,87.08
2019-04-26T22:02:34.922Z,86.39
2019-04-26T22:05:03.567Z,86.37
2019-04-26T22:07:32.846Z,86.70
2019-04-26T22:10:23.805Z,86.30
2019-04-26T22:12:53.951Z,87.23
2019-04-26T22:15:40.090Z,87.40
2019-04-26T22:18:18.040Z,88.00
2019-04-26T22:20:52.261Z,87.79
2019-04-26T22:23:51.693Z,87.43
2019-04-26T22:26:20.642Z,88.17
2019-04-26T22:28:49.644Z,87.85
2019-04-26T22:31:18.561Z,87.40
2019-04-26T22:33:47.568Z,87.54
2019-04-26T22:36:16.609Z,86.99
2019-04-26T22:38:45.677Z,87.49
2019-04-26T22:41:28.420Z,88.53
2019-04-26T22:44:03.869Z,88.24
2019-04-26T22:46:49.524Z,88.42
2019-04-26T22:49:18.377Z,88.53
2019-04-26T22:51:47.401Z,88.58
2019-04-26T22:54:16.406Z,87.51
2019-04-26T22:56:46.005Z,88.19
2019-04-26T23:02:58.112Z,88.76
2019-04-26T23:05:30.746Z,89.16
2019-04-26T23:07:59.334Z,89.01
2019-04-26T23:10:34.584Z,89.51
2019-04-26T23:13:11.004Z,89.70
2019-04-26T23:16:11.355Z,89.60
2019-04-26T23:18:50.865Z,89.11
2019-04-26T23:21:26.802Z,89.12
2019-04-26T23:23:56.133Z,89.23
2019-04-26T23:26:25.711Z,88.88
2019-04-26T23:28:55.887Z,89.01
2019-04-26T23:31:25.244Z,88.79
2019-04-26T23:33:54.959Z,89.42
2019-04-26T23:36:24.507Z,90.16
2019-04-26T23:38:54.168Z,90.07
2019-04-26T23:41:23.773Z,89.85
2019-04-26T23:43:56.830Z,90.25
2019-04-26T23:46:25.888Z,89.35
2019-04-26T23:48:55.361Z,89.13
2019-04-26T23:51:26.255Z,88.83
2019-04-26T23:53:57.773Z,88.74
2019-04-26T23:56:27.145Z,88.82
2019-04-26T23:58:56.712Z,89.16
